CheckWX is a tool to help pilots better visualize weather data.  It is not intended as a substitute for an official pre-flight weather briefing.

22:55:56 UTC

LPPD TAF
João Paulo II Airport
Ponta Delgada, Portugal
TAF LPPD 231700Z 2318/2418 02020KT 9999 SCT018 TEMPO 2318/2324 02030G40KT BECMG 2321/2324 02015KT TEMPO 2324/2412 02020G30KT BECMG 2409/2412 08015KT

Mar-23@
18:00 UTC

Mar-23 @ 18:00 UTC

Mar-23@
21:00 UTC

Mar-23 @ 21:00 UTC

TAF LPPD 231700Z 2318/2418 02020KT 9999 SCT018

Expired

Wind
  • 020° at 20 KTS
Cloud Levels
  • Scattered at 1,800' AGL

Mar-23@
18:00 UTC

Mar-23 @ 18:00 UTC

Mar-24@
00:00 UTC

Mar-24 @ 00:00 UTC

TEMPO 2318/2324 02030G40KT

Temporary

Temporary Changes expected for less than half the time period

Wind
  • 020° at 30 KTS
  • {Gusting to 40 KTS

Mar-23@
21:00 UTC

Mar-23 @ 21:00 UTC

Mar-24@
09:00 UTC

Mar-24 @ 09:00 UTC

BECMG 2321/2324 02015KT

Becoming

Becoming Conditions expected by Sun, Mar 24, 2019 @ 00:00 UTC

Wind
  • 020° at 15 KTS
Cloud Levels
  • Scattered at 1,800' AGL

Mar-24@
00:00 UTC

Mar-24 @ 00:00 UTC

Mar-24@
12:00 UTC

Mar-24 @ 12:00 UTC

Temporary

Temporary Changes expected for less than half the time period

Wind
  • 020° at 20 KTS
  • {Gusting to 30 KTS

Mar-24@
09:00 UTC

Mar-24 @ 09:00 UTC

Mar-24@
18:00 UTC

Mar-24 @ 18:00 UTC

BECMG 2409/2412 08015KT

Becoming

Becoming Conditions expected by Sun, Mar 24, 2019 @ 12:00 UTC

Wind
  • 080° at 15 KTS
Cloud Levels
  • Scattered at 1,800' AGL